createdAt,value
2023-03-06T00:00:41.667Z,31.80
2023-03-06T00:03:18.089Z,29.43
2023-03-06T00:05:45.141Z,28.67
2023-03-06T00:08:12.415Z,35.93
2023-03-06T00:10:40.352Z,33.90
2023-03-06T00:13:11.240Z,32.30
2023-03-06T00:15:38.234Z,32.37
2023-03-06T00:18:06.439Z,29.50
2023-03-06T00:20:34.845Z,27.47
2023-03-06T00:23:02.301Z,32.50
2023-03-06T00:25:29.246Z,31.23
2023-03-06T00:27:56.567Z,31.30
2023-03-06T00:30:25.278Z,33.37
2023-03-06T00:32:53.744Z,30.60
2023-03-06T00:35:20.982Z,35.33
2023-03-06T00:37:48.800Z,32.13
2023-03-06T00:40:18.764Z,32.27
2023-03-06T00:42:46.493Z,33.90
2023-03-06T00:45:13.607Z,29.33
2023-03-06T00:47:41.276Z,30.37
2023-03-06T00:50:09.448Z,30.10
2023-03-06T00:52:37.125Z,24.60
2023-03-06T00:55:04.998Z,28.50
2023-03-06T00:57:32.225Z,33.23
2023-03-06T00:59:59.190Z,27.27
2023-03-06T01:02:26.540Z,28.57
2023-03-06T01:04:53.514Z,30.80
2023-03-06T01:07:20.767Z,26.80
2023-03-06T01:09:47.706Z,33.73
2023-03-06T01:12:14.925Z,27.70
2023-03-06T01:14:41.936Z,31.87
2023-03-06T01:17:09.228Z,33.33
2023-03-06T01:19:36.403Z,32.20
2023-03-06T01:22:03.572Z,34.30
2023-03-06T01:24:30.533Z,36.07
2023-03-06T01:26:57.787Z,31.43
2023-03-06T01:29:26.469Z,29.50
2023-03-06T01:31:53.858Z,29.80
2023-03-06T01:34:20.959Z,30.10
2023-03-06T01:36:48.570Z,32.63
2023-03-06T01:39:15.661Z,34.60
2023-03-06T01:41:43.054Z,40.23
2023-03-06T01:44:13.722Z,39.73
2023-03-06T01:46:45.358Z,34.83
2023-03-06T01:49:25.937Z,30.87
2023-03-06T01:52:03.733Z,32.17
2023-03-06T01:54:45.093Z,34.73
2023-03-06T01:57:28.858Z,35.33
2023-03-06T02:00:26.954Z,34.37
2023-03-06T02:03:18.911Z,32.33
2023-03-06T02:05:46.269Z,37.60
2023-03-06T02:08:17.518Z,30.67
2023-03-06T02:11:09.413Z,29.50
2023-03-06T02:13:38.095Z,33.47
2023-03-06T02:16:08.790Z,36.00
2023-03-06T02:18:36.759Z,31.10
2023-03-06T02:21:07.551Z,37.63
2023-03-06T02:23:40.708Z,32.83
2023-03-06T02:26:09.419Z,26.47
2023-03-06T02:28:36.701Z,33.03
2023-03-06T02:31:03.736Z,39.43
2023-03-06T02:33:31.039Z,33.77
2023-03-06T02:36:03.715Z,30.07
2023-03-06T02:38:48.916Z,32.00
2023-03-06T02:41:16.152Z,28.03
2023-03-06T02:43:45.869Z,32.10
2023-03-06T02:46:12.885Z,35.07
2023-03-06T02:48:40.475Z,34.37
2023-03-06T02:51:07.415Z,33.33
2023-03-06T02:53:34.657Z,35.97
2023-03-06T02:56:02.478Z,33.93
2023-03-06T02:58:29.726Z,29.83
2023-03-06T03:00:56.778Z,29.23
2023-03-06T03:03:24.070Z,30.87
2023-03-06T03:05:50.998Z,32.80
2023-03-06T03:08:18.283Z,33.60
2023-03-06T03:10:45.183Z,30.17
2023-03-06T03:13:12.413Z,31.13
2023-03-06T03:15:39.401Z,31.33
2023-03-06T03:18:06.680Z,30.17
2023-03-06T03:20:33.640Z,36.83
2023-03-06T03:23:00.907Z,30.23
2023-03-06T03:25:28.336Z,29.53
2023-03-06T03:27:55.892Z,33.53
2023-03-06T03:30:23.035Z,32.03
2023-03-06T03:32:52.360Z,34.23
2023-03-06T03:35:19.468Z,31.03
2023-03-06T03:37:46.732Z,31.37
2023-03-06T03:40:13.847Z,34.73
2023-03-06T03:42:41.127Z,30.80
2023-03-06T03:45:08.498Z,31.13
2023-03-06T03:47:35.741Z,33.63
2023-03-06T03:50:02.664Z,27.80
2023-03-06T03:52:30.024Z,30.60
2023-03-06T03:54:57.042Z,35.23
2023-03-06T03:57:24.385Z,38.33
2023-03-06T03:59:51.342Z,33.07
2023-03-06T04:02:21.642Z,37.63
2023-03-06T04:04:48.956Z,33.43
2023-03-06T04:07:16.163Z,32.10
2023-03-06T04:09:43.217Z,25.63
2023-03-06T04:12:10.658Z,35.33
2023-03-06T04:14:37.595Z,35.13
2023-03-06T04:17:04.820Z,27.50
2023-03-06T04:19:31.815Z,25.27
2023-03-06T04:21:58.999Z,31.17
2023-03-06T04:24:25.961Z,22.47
2023-03-06T04:26:53.201Z,26.43
2023-03-06T04:29:20.129Z,27.47
2023-03-06T04:31:47.422Z,27.70
2023-03-06T04:34:14.512Z,30.37
2023-03-06T04:36:45.211Z,29.47
2023-03-06T04:39:13.121Z,31.20
2023-03-06T04:41:41.139Z,34.10
2023-03-06T04:44:08.661Z,28.97
2023-03-06T04:46:36.072Z,31.83
2023-03-06T04:49:04.137Z,33.53
2023-03-06T04:51:31.838Z,34.20
2023-03-06T04:53:58.858Z,26.13
2023-03-06T04:56:26.106Z,36.07
2023-03-06T04:58:53.037Z,31.83
2023-03-06T05:01:20.327Z,29.63
2023-03-06T05:03:47.378Z,28.93
2023-03-06T05:06:14.628Z,22.67
2023-03-06T05:08:41.711Z,35.23
2023-03-06T05:11:08.958Z,28.77
2023-03-06T05:13:35.918Z,28.90
2023-03-06T05:16:07.229Z,32.43
2023-03-06T05:18:35.125Z,27.47
2023-03-06T05:21:02.785Z,30.60
2023-03-06T05:23:31.366Z,31.40
2023-03-06T05:25:58.986Z,43.23
2023-03-06T05:28:26.516Z,31.73
2023-03-06T05:30:53.804Z,33.63
2023-03-06T05:33:20.797Z,32.73
2023-03-06T05:35:48.930Z,33.53
2023-03-06T05:38:16.618Z,33.10
2023-03-06T05:40:44.931Z,45.47
2023-03-06T05:43:12.430Z,32.30
2023-03-06T05:45:39.932Z,32.90
2023-03-06T05:48:07.706Z,31.53
2023-03-06T05:50:35.172Z,32.53
2023-03-06T05:53:02.277Z,28.87
2023-03-06T05:55:29.996Z,30.97
2023-03-06T05:57:57.080Z,39.53
2023-03-06T06:00:24.679Z,32.40
2023-03-06T06:02:51.769Z,33.03
2023-03-06T06:05:19.108Z,33.60
2023-03-06T06:07:46.086Z,31.70
2023-03-06T06:10:13.614Z,31.03
2023-03-06T06:12:40.605Z,36.57
2023-03-06T06:15:08.260Z,34.30
2023-03-06T06:17:35.217Z,34.53
2023-03-06T06:20:02.623Z,39.33
2023-03-06T06:22:29.592Z,33.43
2023-03-06T06:24:56.839Z,35.53
2023-03-06T06:27:23.821Z,27.07
2023-03-06T06:29:52.487Z,32.17
2023-03-06T06:32:19.449Z,32.87
2023-03-06T06:34:46.729Z,28.83
2023-03-06T06:37:13.790Z,25.53
2023-03-06T06:39:41.359Z,29.77
2023-03-06T06:42:29.306Z,27.53
2023-03-06T06:44:57.478Z,27.33
2023-03-06T06:47:25.776Z,32.17
2023-03-06T06:49:54.749Z,26.13
2023-03-06T06:52:23.051Z,32.30
2023-03-06T06:54:50.531Z,27.17
2023-03-06T06:57:17.777Z,24.50
2023-03-06T06:59:45.182Z,27.87
2023-03-06T07:02:13.983Z,28.80
2023-03-06T07:04:56.245Z,25.43
2023-03-06T07:07:29.220Z,27.63
2023-03-06T07:09:56.716Z,28.00
2023-03-06T07:12:23.723Z,28.53
2023-03-06T07:14:50.974Z,26.27
2023-03-06T07:17:17.980Z,26.23
2023-03-06T07:19:45.188Z,27.17
2023-03-06T07:22:12.374Z,29.00
2023-03-06T07:24:39.609Z,29.00
2023-03-06T07:27:06.640Z,25.07
2023-03-06T07:29:34.678Z,27.97
2023-03-06T07:32:01.771Z,25.47
2023-03-06T07:34:29.486Z,23.60
2023-03-06T07:36:56.645Z,24.17
2023-03-06T07:39:23.970Z,26.47
2023-03-06T07:41:52.198Z,26.47
2023-03-06T07:44:19.573Z,28.20
2023-03-06T07:46:46.640Z,31.63
2023-03-06T07:49:14.039Z,23.93
2023-03-06T07:51:41.105Z,23.17
2023-03-06T07:54:08.365Z,25.57
2023-03-06T07:56:35.329Z,28.33
2023-03-06T07:59:02.689Z,27.80
2023-03-06T08:01:29.914Z,25.73
2023-03-06T08:03:57.788Z,30.20
2023-03-06T08:06:27.019Z,26.83
2023-03-06T08:08:55.784Z,28.43
2023-03-06T08:11:25.561Z,25.57
2023-03-06T08:13:53.749Z,27.53
2023-03-06T08:16:22.020Z,22.10
2023-03-06T08:18:49.456Z,24.23
2023-03-06T08:21:19.078Z,25.83
2023-03-06T08:23:50.172Z,23.30
2023-03-06T08:26:32.954Z,25.17
2023-03-06T08:29:02.042Z,22.90
2023-03-06T08:31:40.335Z,26.57
2023-03-06T08:34:10.568Z,24.47
2023-03-06T08:36:37.704Z,22.67
2023-03-06T08:39:05.775Z,27.97
2023-03-06T08:41:33.703Z,20.90
2023-03-06T08:44:01.244Z,24.23
2023-03-06T08:46:29.578Z,27.90
2023-03-06T08:48:57.805Z,28.10
2023-03-06T08:51:25.681Z,26.47
2023-03-06T08:53:52.886Z,24.53
2023-03-06T08:56:23.365Z,20.03
2023-03-06T08:58:51.291Z,22.60
2023-03-06T09:01:27.455Z,23.80
2023-03-06T09:03:56.537Z,22.27
2023-03-06T09:06:24.375Z,27.17
2023-03-06T09:08:55.126Z,22.83
2023-03-06T09:11:25.125Z,17.17
2023-03-06T09:13:53.274Z,18.67
2023-03-06T09:16:20.726Z,16.10
2023-03-06T09:18:50.433Z,14.20
2023-03-06T09:21:17.401Z,23.57
2023-03-06T09:23:45.169Z,15.90
2023-03-06T09:26:12.715Z,16.53
2023-03-06T09:28:40.911Z,20.80
2023-03-06T09:31:13.209Z,13.07
2023-03-06T09:33:40.920Z,16.83
2023-03-06T09:36:10.801Z,14.43
2023-03-06T09:38:38.602Z,17.10
2023-03-06T09:41:14.172Z,22.07
2023-03-06T09:43:45.408Z,15.77
2023-03-06T09:46:49.883Z,17.50
2023-03-06T09:49:35.882Z,17.53
2023-03-06T09:52:24.584Z,15.37
2023-03-06T09:55:16.358Z,17.07
2023-03-06T09:58:09.135Z,19.40
2023-03-06T10:00:45.817Z,18.97
2023-03-06T10:03:39.263Z,19.20
2023-03-06T10:06:30.269Z,16.53
2023-03-06T10:09:11.969Z,16.43
2023-03-06T10:11:52.902Z,15.93
2023-03-06T10:14:32.888Z,22.20
2023-03-06T10:17:01.584Z,13.50
2023-03-06T10:19:37.063Z,15.70
2023-03-06T10:22:23.296Z,16.00
2023-03-06T10:25:12.198Z,12.27
2023-03-06T10:27:49.871Z,13.73
2023-03-06T10:30:35.800Z,15.00
2023-03-06T10:33:18.851Z,17.27
2023-03-06T10:35:51.858Z,18.00
2023-03-06T10:38:28.143Z,12.83
2023-03-06T10:41:13.344Z,20.27
2023-03-06T10:43:48.320Z,14.40
2023-03-06T10:46:28.100Z,14.07
2023-03-06T10:49:03.780Z,16.50
2023-03-06T10:51:31.935Z,20.13
2023-03-06T10:54:14.595Z,19.27
2023-03-06T10:56:44.050Z,17.20
2023-03-06T10:59:25.377Z,15.70
2023-03-06T11:02:40.937Z,15.90
2023-03-06T11:05:21.261Z,11.60
2023-03-06T11:07:59.225Z,10.47
2023-03-06T11:10:29.129Z,11.87
2023-03-06T11:13:00.687Z,11.03
2023-03-06T11:15:29.445Z,11.63
2023-03-06T11:17:56.372Z,11.63
2023-03-06T11:20:53.042Z,11.07
2023-03-06T11:23:39.344Z,14.17
2023-03-06T11:26:09.344Z,15.73
2023-03-06T11:29:24.498Z,16.50
2023-03-06T11:31:56.988Z,13.60
2023-03-06T11:34:47.673Z,14.13
2023-03-06T11:37:47.705Z,15.53
2023-03-06T11:40:26.813Z,15.80
2023-03-06T11:43:21.493Z,12.50
2023-03-06T11:46:26.330Z,14.93
2023-03-06T11:48:57.637Z,13.03
2023-03-06T11:51:30.375Z,13.67
2023-03-06T11:54:00.489Z,17.60
2023-03-06T11:56:38.098Z,14.53
2023-03-06T11:59:18.650Z,16.40
2023-03-06T12:01:54.898Z,15.30
2023-03-06T12:04:52.528Z,15.00
2023-03-06T12:07:24.983Z,14.57
2023-03-06T12:10:30.944Z,16.00
2023-03-06T12:13:00.860Z,14.83
2023-03-06T12:15:30.805Z,17.80
2023-03-06T12:18:24.799Z,16.50
2023-03-06T12:21:04.114Z,15.93
2023-03-06T12:23:43.403Z,15.13
2023-03-06T12:26:22.587Z,14.43
2023-03-06T12:29:06.610Z,15.47
2023-03-06T12:31:43.441Z,12.80
2023-03-06T12:34:21.981Z,12.73
2023-03-06T12:36:52.269Z,15.67
2023-03-06T12:39:45.875Z,14.80
2023-03-06T12:42:23.543Z,13.93
2023-03-06T12:45:21.990Z,18.87
2023-03-06T12:47:53.725Z,15.77
2023-03-06T12:50:30.221Z,16.53
2023-03-06T12:53:01.746Z,15.70
2023-03-06T12:55:42.328Z,16.13
2023-03-06T12:58:28.994Z,14.53
2023-03-06T13:01:25.722Z,13.13
2023-03-06T13:04:27.453Z,18.63
2023-03-06T13:07:03.525Z,19.20
2023-03-06T13:09:54.706Z,20.77
2023-03-06T13:12:24.800Z,19.97
2023-03-06T13:14:55.551Z,21.93
2023-03-06T13:17:27.328Z,19.87
2023-03-06T13:20:13.614Z,18.07
2023-03-06T13:22:47.838Z,16.17
2023-03-06T13:25:20.837Z,25.13
2023-03-06T13:28:03.298Z,19.47
2023-03-06T13:30:39.667Z,18.43
2023-03-06T13:33:30.163Z,22.57
2023-03-06T13:36:18.568Z,24.13
2023-03-06T13:38:51.808Z,25.03
2023-03-06T13:41:31.234Z,22.70
2023-03-06T13:44:00.866Z,21.90
2023-03-06T13:46:37.194Z,24.40
2023-03-06T13:49:13.285Z,25.00
2023-03-06T13:51:43.725Z,24.23
2023-03-06T13:54:47.267Z,23.63
2023-03-06T13:58:01.940Z,25.00
2023-03-06T14:01:12.717Z,32.23
2023-03-06T14:04:16.336Z,25.70
2023-03-06T14:06:52.197Z,23.90
2023-03-06T14:09:38.068Z,23.53
2023-03-06T14:12:17.073Z,28.43
2023-03-06T14:14:51.410Z,26.40
2023-03-06T14:17:32.008Z,29.33
2023-03-06T14:20:05.785Z,26.37
2023-03-06T14:22:32.774Z,28.83
2023-03-06T14:25:05.426Z,33.93
2023-03-06T14:27:49.832Z,28.57
2023-03-06T14:30:25.220Z,32.33
2023-03-06T14:32:54.898Z,36.30
2023-03-06T14:35:27.313Z,34.57
2023-03-06T14:37:59.267Z,29.97
2023-03-06T14:40:36.411Z,32.83
2023-03-06T14:43:20.707Z,46.13
2023-03-06T14:45:56.445Z,34.00
2023-03-06T14:48:25.987Z,35.00
2023-03-06T14:50:57.240Z,33.23
2023-03-06T14:53:28.053Z,31.43
2023-03-06T14:55:59.012Z,32.20
2023-03-06T14:58:34.994Z,33.53
2023-03-06T15:01:08.605Z,28.97
2023-03-06T15:03:50.691Z,28.83
2023-03-06T15:06:29.380Z,29.00
2023-03-06T15:09:01.860Z,30.60
2023-03-06T15:11:55.238Z,33.63
2023-03-06T15:14:37.740Z,37.43
2023-03-06T15:17:32.053Z,28.80
2023-03-06T15:20:01.132Z,35.80
2023-03-06T15:22:29.177Z,35.07
2023-03-06T15:25:20.925Z,36.23
2023-03-06T15:27:58.369Z,34.80
2023-03-06T15:30:29.965Z,40.07
2023-03-06T15:33:10.749Z,30.63
2023-03-06T15:35:38.397Z,37.63
2023-03-06T15:38:24.758Z,39.87
2023-03-06T15:41:00.085Z,38.17
2023-03-06T15:43:31.386Z,42.40
2023-03-06T15:46:00.869Z,39.60
2023-03-06T15:48:28.540Z,40.17
2023-03-06T15:50:55.572Z,37.57
2023-03-06T15:53:23.249Z,44.97
2023-03-06T15:55:51.740Z,43.70
2023-03-06T15:58:23.566Z,41.67
2023-03-06T16:00:51.361Z,39.30
2023-03-06T16:03:18.915Z,44.40
2023-03-06T16:05:45.894Z,41.97
2023-03-06T16:08:14.934Z,44.27
2023-03-06T16:10:43.940Z,37.17
2023-03-06T16:13:16.165Z,41.53
2023-03-06T16:15:50.559Z,41.10
2023-03-06T16:18:18.405Z,46.30
2023-03-06T16:20:45.896Z,40.60
2023-03-06T16:23:13.374Z,37.27
2023-03-06T16:25:43.048Z,40.50
2023-03-06T16:28:15.580Z,48.07
2023-03-06T16:30:44.494Z,44.80
2023-03-06T16:33:13.007Z,40.97
2023-03-06T16:35:41.269Z,42.80
2023-03-06T16:38:10.445Z,45.10
2023-03-06T16:40:41.412Z,45.40
2023-03-06T16:43:10.591Z,40.97
2023-03-06T16:45:39.339Z,41.23
2023-03-06T16:48:07.441Z,43.23
2023-03-06T16:50:38.397Z,51.37
2023-03-06T16:53:06.724Z,45.50
2023-03-06T16:55:33.875Z,50.33
2023-03-06T16:58:01.234Z,43.17
2023-03-06T17:00:31.925Z,45.50
2023-03-06T17:03:00.763Z,44.13
2023-03-06T17:05:28.684Z,44.43
2023-03-06T17:07:56.591Z,39.47
2023-03-06T17:10:26.405Z,41.13
2023-03-06T17:12:55.284Z,41.57
2023-03-06T17:15:22.324Z,42.30
2023-03-06T17:17:51.715Z,40.23
2023-03-06T17:20:19.964Z,44.93
2023-03-06T17:22:47.529Z,41.83
2023-03-06T17:25:14.871Z,37.57
2023-03-06T17:27:42.145Z,42.17
2023-03-06T17:30:09.908Z,39.03
2023-03-06T17:32:38.380Z,40.17
2023-03-06T17:35:05.864Z,31.83
2023-03-06T17:37:33.239Z,39.20
2023-03-06T17:40:00.373Z,39.13
2023-03-06T17:42:27.664Z,37.17
2023-03-06T17:44:54.663Z,39.10
2023-03-06T17:47:21.972Z,38.07
2023-03-06T17:49:48.900Z,33.60
2023-03-06T17:52:16.121Z,41.90
2023-03-06T17:54:43.134Z,34.90
2023-03-06T17:57:10.458Z,35.43
2023-03-06T17:59:37.486Z,41.70
2023-03-06T18:02:06.412Z,39.57
2023-03-06T18:04:33.643Z,39.03
2023-03-06T18:07:01.186Z,41.57
2023-03-06T18:09:28.335Z,35.93
2023-03-06T18:11:55.585Z,35.90
2023-03-06T18:14:22.687Z,37.37
2023-03-06T18:16:50.230Z,37.40
2023-03-06T18:19:17.719Z,35.30
2023-03-06T18:21:47.281Z,36.00
2023-03-06T18:24:14.549Z,36.00
2023-03-06T18:26:44.903Z,34.90
2023-03-06T18:29:12.177Z,35.43
2023-03-06T18:31:41.746Z,37.23
2023-03-06T18:34:14.361Z,30.77
2023-03-06T18:36:43.608Z,36.83
2023-03-06T18:39:12.893Z,32.43
2023-03-06T18:41:41.340Z,32.53
2023-03-06T18:44:08.872Z,35.33
2023-03-06T18:46:38.025Z,34.53
2023-03-06T18:49:06.073Z,34.43
2023-03-06T18:51:34.649Z,39.37
2023-03-06T18:54:02.821Z,40.60
2023-03-06T18:56:30.823Z,36.93
2023-03-06T18:59:06.537Z,37.83
2023-03-06T19:01:34.326Z,36.07
2023-03-06T19:04:02.868Z,44.33
2023-03-06T19:06:30.802Z,35.57
2023-03-06T19:09:02.191Z,40.13
2023-03-06T19:11:29.715Z,36.63
2023-03-06T19:13:56.829Z,38.67
2023-03-06T19:16:27.004Z,36.93
2023-03-06T19:18:55.697Z,41.20
2023-03-06T19:21:25.200Z,38.30
2023-03-06T19:23:52.193Z,33.57
2023-03-06T19:26:19.762Z,35.73
2023-03-06T19:28:47.597Z,36.40
2023-03-06T19:31:25.164Z,34.07
2023-03-06T19:33:53.639Z,29.40
2023-03-06T19:36:26.575Z,32.03
2023-03-06T19:38:55.104Z,34.47
2023-03-06T19:41:22.380Z,29.23
2023-03-06T19:43:53.034Z,30.43
2023-03-06T19:46:21.763Z,26.87
2023-03-06T19:48:53.593Z,34.10
2023-03-06T19:51:20.824Z,27.03
2023-03-06T19:53:47.803Z,28.13
2023-03-06T19:56:19.565Z,26.50
2023-03-06T19:58:46.571Z,36.27
2023-03-06T20:01:16.713Z,25.53
2023-03-06T20:03:43.901Z,24.60
2023-03-06T20:06:14.496Z,25.83
2023-03-06T20:08:45.238Z,22.27
2023-03-06T20:11:24.678Z,24.87
2023-03-06T20:13:52.018Z,22.53
2023-03-06T20:16:19.380Z,24.20
2023-03-06T20:18:46.811Z,19.93
2023-03-06T20:21:14.802Z,21.87
2023-03-06T20:23:42.324Z,23.07
2023-03-06T20:26:12.513Z,22.37
2023-03-06T20:28:41.478Z,20.10
2023-03-06T20:31:16.745Z,20.77
2023-03-06T20:33:48.449Z,21.57
2023-03-06T20:36:18.563Z,20.87
2023-03-06T20:38:46.122Z,21.90
2023-03-06T20:41:19.717Z,20.23
2023-03-06T20:43:46.737Z,20.97
2023-03-06T20:46:14.741Z,21.43
2023-03-06T20:48:43.002Z,18.50
2023-03-06T20:51:24.962Z,20.87
2023-03-06T20:53:55.802Z,21.07
2023-03-06T20:56:26.550Z,21.03
2023-03-06T20:58:53.924Z,21.60
2023-03-06T21:01:36.125Z,20.90
2023-03-06T21:04:06.583Z,24.47
2023-03-06T21:06:33.940Z,18.03
2023-03-06T21:09:01.828Z,18.07
2023-03-06T21:11:29.545Z,21.03
2023-03-06T21:13:57.112Z,19.33
2023-03-06T21:16:25.962Z,21.23
2023-03-06T21:18:54.848Z,20.00
2023-03-06T21:21:24.802Z,17.70
2023-03-06T21:23:52.137Z,18.60
2023-03-06T21:26:21.765Z,21.13
2023-03-06T21:28:49.077Z,18.50
2023-03-06T21:31:19.399Z,20.23
2023-03-06T21:33:48.748Z,24.23
2023-03-06T21:36:18.442Z,22.63
2023-03-06T21:38:46.528Z,24.97
2023-03-06T21:41:25.853Z,26.97
2023-03-06T21:44:00.589Z,24.70
2023-03-06T21:46:28.547Z,24.47
2023-03-06T21:48:56.553Z,25.00
2023-03-06T21:51:25.725Z,29.03
2023-03-06T21:53:53.744Z,26.77
2023-03-06T21:56:23.925Z,24.93
2023-03-06T21:58:51.266Z,33.17
2023-03-06T22:01:21.819Z,34.13
2023-03-06T22:03:49.082Z,30.23
2023-03-06T22:06:22.773Z,30.63
2023-03-06T22:08:49.997Z,28.30
2023-03-06T22:11:20.723Z,30.60
2023-03-06T22:13:48.349Z,29.87
2023-03-06T22:16:16.849Z,30.43
2023-03-06T22:18:48.567Z,29.80
2023-03-06T22:21:18.048Z,34.47
2023-03-06T22:23:51.993Z,33.13
2023-03-06T22:26:19.942Z,31.03
2023-03-06T22:28:47.364Z,29.00
2023-03-06T22:31:17.353Z,30.87
2023-03-06T22:33:44.586Z,33.20
2023-03-06T22:36:14.796Z,35.17
2023-03-06T22:38:43.746Z,41.13
2023-03-06T22:41:12.035Z,36.17
2023-03-06T22:43:39.237Z,34.17
2023-03-06T22:46:12.635Z,42.43
2023-03-06T22:48:40.041Z,35.43
2023-03-06T22:51:13.690Z,35.60
2023-03-06T22:53:40.966Z,33.77
2023-03-06T22:56:11.228Z,35.00
2023-03-06T22:58:38.258Z,35.80
2023-03-06T23:01:10.785Z,32.10
2023-03-06T23:03:39.385Z,41.03
2023-03-06T23:06:12.506Z,38.73
2023-03-06T23:08:39.448Z,39.93
2023-03-06T23:11:14.645Z,37.33
2023-03-06T23:13:42.064Z,43.60
2023-03-06T23:16:09.991Z,36.23
2023-03-06T23:18:38.082Z,33.47
2023-03-06T23:21:13.335Z,37.23
2023-03-06T23:23:40.729Z,33.70
2023-03-06T23:26:08.831Z,35.67
2023-03-06T23:28:35.923Z,38.37
2023-03-06T23:31:08.202Z,34.17
2023-03-06T23:33:36.924Z,32.00
2023-03-06T23:36:05.927Z,30.17
2023-03-06T23:38:33.303Z,30.23
2023-03-06T23:41:08.490Z,36.77
2023-03-06T23:43:35.629Z,31.70
2023-03-06T23:46:03.979Z,39.73
2023-03-06T23:48:30.952Z,35.77
2023-03-06T23:50:58.311Z,41.70
2023-03-06T23:53:25.995Z,40.17
2023-03-06T23:55:53.817Z,38.03
2023-03-06T23:58:20.940Z,45.40
